sensor_id;sensor_type;location;lat;lon;timestamp;P1;durP1;ratioP1;P2;durP2;ratioP2
68273;SDS011;55104;47.356;19.448;2023-12-22T00:01:30;8.50;;;3.90;;
68273;SDS011;55104;47.356;19.448;2023-12-22T00:04:33;15.63;;;4.82;;
68273;SDS011;55104;47.356;19.448;2023-12-22T00:07:35;9.57;;;3.53;;
68273;SDS011;55104;47.356;19.448;2023-12-22T00:10:37;10.60;;;3.60;;
68273;SDS011;55104;47.356;19.448;2023-12-22T00:13:39;9.57;;;4.03;;
68273;SDS011;55104;47.356;19.448;2023-12-22T00:16:41;12.82;;;4.68;;
68273;SDS011;55104;47.356;19.448;2023-12-22T00:19:44;7.00;;;3.90;;
68273;SDS011;55104;47.356;19.448;2023-12-22T00:22:46;7.43;;;3.20;;
68273;SDS011;55104;47.356;19.448;2023-12-22T00:25:48;8.32;;;3.70;;
68273;SDS011;55104;47.356;19.448;2023-12-22T00:28:51;9.03;;;3.03;;
68273;SDS011;55104;47.356;19.448;2023-12-22T00:31:53;12.07;;;4.18;;
68273;SDS011;55104;47.356;19.448;2023-12-22T00:34:55;12.23;;;4.57;;
68273;SDS011;55104;47.356;19.448;2023-12-22T00:38:00;12.80;;;4.65;;
68273;SDS011;55104;47.356;19.448;2023-12-22T00:41:02;10.32;;;4.55;;
68273;SDS011;55104;47.356;19.448;2023-12-22T00:44:04;11.18;;;3.55;;
68273;SDS011;55104;47.356;19.448;2023-12-22T00:47:07;11.40;;;4.47;;
68273;SDS011;55104;47.356;19.448;2023-12-22T00:50:09;12.03;;;5.03;;
68273;SDS011;55104;47.356;19.448;2023-12-22T00:53:12;11.90;;;4.65;;
68273;SDS011;55104;47.356;19.448;2023-12-22T00:56:14;10.90;;;4.47;;
68273;SDS011;55104;47.356;19.448;2023-12-22T00:59:16;12.90;;;4.77;;
68273;SDS011;55104;47.356;19.448;2023-12-22T01:02:18;9.95;;;4.80;;
68273;SDS011;55104;47.356;19.448;2023-12-22T01:05:22;14.60;;;3.75;;
68273;SDS011;55104;47.356;19.448;2023-12-22T01:08:24;6.82;;;3.58;;
68273;SDS011;55104;47.356;19.448;2023-12-22T01:11:26;13.65;;;5.25;;
68273;SDS011;55104;47.356;19.448;2023-12-22T01:14:29;7.68;;;2.75;;
68273;SDS011;55104;47.356;19.448;2023-12-22T01:17:31;7.70;;;3.22;;
68273;SDS011;55104;47.356;19.448;2023-12-22T01:20:34;7.23;;;2.73;;
68273;SDS011;55104;47.356;19.448;2023-12-22T01:23:36;7.82;;;2.38;;
68273;SDS011;55104;47.356;19.448;2023-12-22T01:26:38;9.40;;;2.63;;
68273;SDS011;55104;47.356;19.448;2023-12-22T01:29:40;10.87;;;2.87;;
68273;SDS011;55104;47.356;19.448;2023-12-22T01:32:42;5.63;;;2.42;;
68273;SDS011;55104;47.356;19.448;2023-12-22T01:35:44;4.53;;;1.25;;
68273;SDS011;55104;47.356;19.448;2023-12-22T01:38:47;7.07;;;2.25;;
68273;SDS011;55104;47.356;19.448;2023-12-22T01:41:49;5.00;;;1.80;;
68273;SDS011;55104;47.356;19.448;2023-12-22T01:44:51;5.20;;;1.38;;
68273;SDS011;55104;47.356;19.448;2023-12-22T01:47:53;3.47;;;1.08;;
68273;SDS011;55104;47.356;19.448;2023-12-22T01:50:56;3.20;;;1.23;;
68273;SDS011;55104;47.356;19.448;2023-12-22T01:54:01;5.05;;;0.70;;
68273;SDS011;55104;47.356;19.448;2023-12-22T01:57:03;1.90;;;0.63;;
68273;SDS011;55104;47.356;19.448;2023-12-22T02:00:06;2.20;;;0.73;;
68273;SDS011;55104;47.356;19.448;2023-12-22T02:03:13;3.75;;;1.08;;
68273;SDS011;55104;47.356;19.448;2023-12-22T02:06:16;3.78;;;0.95;;
68273;SDS011;55104;47.356;19.448;2023-12-22T02:09:18;1.58;;;0.47;;
68273;SDS011;55104;47.356;19.448;2023-12-22T02:12:20;1.30;;;0.60;;
68273;SDS011;55104;47.356;19.448;2023-12-22T02:15:22;2.47;;;1.20;;
68273;SDS011;55104;47.356;19.448;2023-12-22T02:18:26;0.47;;;0.10;;
68273;SDS011;55104;47.356;19.448;2023-12-22T02:21:32;2.77;;;0.70;;
68273;SDS011;55104;47.356;19.448;2023-12-22T02:24:34;1.15;;;0.38;;
68273;SDS011;55104;47.356;19.448;2023-12-22T02:27:45;1.77;;;0.55;;
68273;SDS011;55104;47.356;19.448;2023-12-22T02:30:56;0.70;;;0.30;;
68273;SDS011;55104;47.356;19.448;2023-12-22T02:34:05;2.05;;;0.68;;
68273;SDS011;55104;47.356;19.448;2023-12-22T02:37:11;1.23;;;0.30;;
68273;SDS011;55104;47.356;19.448;2023-12-22T02:40:14;1.75;;;0.50;;
68273;SDS011;55104;47.356;19.448;2023-12-22T02:43:17;0.82;;;0.30;;
68273;SDS011;55104;47.356;19.448;2023-12-22T02:46:19;0.45;;;0.15;;
68273;SDS011;55104;47.356;19.448;2023-12-22T02:49:21;0.80;;;0.30;;
68273;SDS011;55104;47.356;19.448;2023-12-22T02:52:24;0.20;;;0.10;;
68273;SDS011;55104;47.356;19.448;2023-12-22T02:55:27;0.52;;;0.22;;
68273;SDS011;55104;47.356;19.448;2023-12-22T02:58:29;0.90;;;0.30;;
68273;SDS011;55104;47.356;19.448;2023-12-22T03:01:31;1.50;;;0.30;;
68273;SDS011;55104;47.356;19.448;2023-12-22T03:04:34;1.05;;;0.20;;
68273;SDS011;55104;47.356;19.448;2023-12-22T03:07:36;0.73;;;0.50;;
68273;SDS011;55104;47.356;19.448;2023-12-22T03:10:39;0.52;;;0.30;;
68273;SDS011;55104;47.356;19.448;2023-12-22T03:13:41;1.58;;;0.30;;
68273;SDS011;55104;47.356;19.448;2023-12-22T03:16:43;5.57;;;1.00;;
68273;SDS011;55104;47.356;19.448;2023-12-22T03:19:46;0.60;;;0.20;;
68273;SDS011;55104;47.356;19.448;2023-12-22T03:22:48;0.77;;;0.20;;
68273;SDS011;55104;47.356;19.448;2023-12-22T03:25:50;0.90;;;0.28;;
68273;SDS011;55104;47.356;19.448;2023-12-22T03:28:53;2.28;;;0.40;;
68273;SDS011;55104;47.356;19.448;2023-12-22T03:31:55;2.03;;;0.80;;
68273;SDS011;55104;47.356;19.448;2023-12-22T03:34:57;0.73;;;0.30;;
68273;SDS011;55104;47.356;19.448;2023-12-22T03:38:00;1.02;;;0.25;;
68273;SDS011;55104;47.356;19.448;2023-12-22T03:41:02;1.50;;;0.63;;
68273;SDS011;55104;47.356;19.448;2023-12-22T03:44:05;5.75;;;1.02;;
68273;SDS011;55104;47.356;19.448;2023-12-22T03:47:07;1.80;;;0.57;;
68273;SDS011;55104;47.356;19.448;2023-12-22T03:50:09;1.13;;;0.30;;
68273;SDS011;55104;47.356;19.448;2023-12-22T03:53:13;1.00;;;0.37;;
68273;SDS011;55104;47.356;19.448;2023-12-22T03:56:15;3.88;;;1.05;;
68273;SDS011;55104;47.356;19.448;2023-12-22T03:59:17;1.70;;;0.68;;
68273;SDS011;55104;47.356;19.448;2023-12-22T04:02:20;0.50;;;0.20;;
68273;SDS011;55104;47.356;19.448;2023-12-22T04:05:22;0.30;;;0.15;;
68273;SDS011;55104;47.356;19.448;2023-12-22T04:08:24;0.82;;;0.35;;
68273;SDS011;55104;47.356;19.448;2023-12-22T04:11:26;1.58;;;0.20;;
68273;SDS011;55104;47.356;19.448;2023-12-22T04:14:28;0.00;;;0.00;;
68273;SDS011;55104;47.356;19.448;2023-12-22T04:17:31;2.65;;;0.35;;
68273;SDS011;55104;47.356;19.448;2023-12-22T04:20:33;1.98;;;0.20;;
68273;SDS011;55104;47.356;19.448;2023-12-22T04:23:36;1.90;;;0.40;;
68273;SDS011;55104;47.356;19.448;2023-12-22T04:26:38;0.43;;;0.10;;
68273;SDS011;55104;47.356;19.448;2023-12-22T04:29:40;1.20;;;0.63;;
68273;SDS011;55104;47.356;19.448;2023-12-22T04:32:42;0.87;;;0.30;;
68273;SDS011;55104;47.356;19.448;2023-12-22T04:35:44;2.60;;;0.43;;
68273;SDS011;55104;47.356;19.448;2023-12-22T04:38:46;1.50;;;0.50;;
68273;SDS011;55104;47.356;19.448;2023-12-22T04:41:48;0.35;;;0.20;;
68273;SDS011;55104;47.356;19.448;2023-12-22T04:44:54;0.17;;;0.10;;
68273;SDS011;55104;47.356;19.448;2023-12-22T04:47:56;0.30;;;0.10;;
68273;SDS011;55104;47.356;19.448;2023-12-22T04:50:59;0.43;;;0.30;;
68273;SDS011;55104;47.356;19.448;2023-12-22T04:54:01;0.50;;;0.10;;
68273;SDS011;55104;47.356;19.448;2023-12-22T04:57:03;0.90;;;0.20;;
68273;SDS011;55104;47.356;19.448;2023-12-22T05:00:06;1.27;;;0.63;;
68273;SDS011;55104;47.356;19.448;2023-12-22T05:03:09;0.50;;;0.10;;
68273;SDS011;55104;47.356;19.448;2023-12-22T05:06:11;0.52;;;0.17;;
68273;SDS011;55104;47.356;19.448;2023-12-22T05:09:14;0.52;;;0.30;;
68273;SDS011;55104;47.356;19.448;2023-12-22T05:12:17;1.30;;;0.38;;
68273;SDS011;55104;47.356;19.448;2023-12-22T05:15:18;0.75;;;0.30;;
68273;SDS011;55104;47.356;19.448;2023-12-22T05:18:21;2.58;;;0.65;;
68273;SDS011;55104;47.356;19.448;2023-12-22T05:21:23;0.10;;;0.10;;
68273;SDS011;55104;47.356;19.448;2023-12-22T05:24:26;0.73;;;0.37;;
68273;SDS011;55104;47.356;19.448;2023-12-22T05:27:28;0.55;;;0.30;;
68273;SDS011;55104;47.356;19.448;2023-12-22T05:30:30;1.45;;;0.15;;
68273;SDS011;55104;47.356;19.448;2023-12-22T05:33:32;3.07;;;0.77;;
68273;SDS011;55104;47.356;19.448;2023-12-22T05:36:34;2.20;;;0.10;;
68273;SDS011;55104;47.356;19.448;2023-12-22T05:39:36;1.55;;;0.38;;
68273;SDS011;55104;47.356;19.448;2023-12-22T05:42:39;1.13;;;0.35;;
68273;SDS011;55104;47.356;19.448;2023-12-22T05:45:41;0.68;;;0.15;;
68273;SDS011;55104;47.356;19.448;2023-12-22T05:48:43;2.58;;;0.60;;
68273;SDS011;55104;47.356;19.448;2023-12-22T05:51:46;0.10;;;0.10;;
68273;SDS011;55104;47.356;19.448;2023-12-22T05:54:48;0.30;;;0.10;;
68273;SDS011;55104;47.356;19.448;2023-12-22T05:57:50;1.38;;;0.40;;
68273;SDS011;55104;47.356;19.448;2023-12-22T06:00:52;4.72;;;0.30;;
68273;SDS011;55104;47.356;19.448;2023-12-22T06:03:54;0.73;;;0.20;;
68273;SDS011;55104;47.356;19.448;2023-12-22T06:06:57;1.02;;;0.65;;
68273;SDS011;55104;47.356;19.448;2023-12-22T06:09:59;0.90;;;0.38;;
68273;SDS011;55104;47.356;19.448;2023-12-22T06:13:01;0.85;;;0.30;;
68273;SDS011;55104;47.356;19.448;2023-12-22T06:16:05;2.42;;;0.93;;
68273;SDS011;55104;47.356;19.448;2023-12-22T06:19:07;0.68;;;0.28;;
68273;SDS011;55104;47.356;19.448;2023-12-22T06:22:10;1.10;;;0.25;;
68273;SDS011;55104;47.356;19.448;2023-12-22T06:25:12;0.80;;;0.27;;
68273;SDS011;55104;47.356;19.448;2023-12-22T06:28:14;0.60;;;0.10;;
68273;SDS011;55104;47.356;19.448;2023-12-22T06:31:19;1.35;;;0.75;;
68273;SDS011;55104;47.356;19.448;2023-12-22T06:34:23;0.73;;;0.23;;
68273;SDS011;55104;47.356;19.448;2023-12-22T06:37:25;8.73;;;1.98;;
68273;SDS011;55104;47.356;19.448;2023-12-22T06:40:28;3.10;;;0.73;;
68273;SDS011;55104;47.356;19.448;2023-12-22T06:43:30;0.57;;;0.20;;
68273;SDS011;55104;47.356;19.448;2023-12-22T06:46:32;1.65;;;0.40;;
68273;SDS011;55104;47.356;19.448;2023-12-22T06:49:35;0.45;;;0.25;;
68273;SDS011;55104;47.356;19.448;2023-12-22T06:52:37;0.65;;;0.38;;
68273;SDS011;55104;47.356;19.448;2023-12-22T06:55:40;2.07;;;0.73;;
68273;SDS011;55104;47.356;19.448;2023-12-22T06:58:42;3.80;;;0.35;;
68273;SDS011;55104;47.356;19.448;2023-12-22T07:01:44;2.40;;;0.65;;
68273;SDS011;55104;47.356;19.448;2023-12-22T07:08:23;2.33;;;0.50;;
68273;SDS011;55104;47.356;19.448;2023-12-22T07:11:25;9.68;;;0.95;;
68273;SDS011;55104;47.356;19.448;2023-12-22T07:14:38;1.45;;;0.45;;
68273;SDS011;55104;47.356;19.448;2023-12-22T07:17:40;7.78;;;1.42;;
68273;SDS011;55104;47.356;19.448;2023-12-22T07:20:42;1.90;;;0.85;;
68273;SDS011;55104;47.356;19.448;2023-12-22T07:23:45;1.33;;;0.50;;
68273;SDS011;55104;47.356;19.448;2023-12-22T07:26:47;3.90;;;0.87;;
68273;SDS011;55104;47.356;19.448;2023-12-22T07:29:49;2.55;;;0.60;;
68273;SDS011;55104;47.356;19.448;2023-12-22T07:32:53;2.80;;;0.60;;
68273;SDS011;55104;47.356;19.448;2023-12-22T07:35:56;0.33;;;0.20;;
68273;SDS011;55104;47.356;19.448;2023-12-22T07:38:58;2.75;;;0.73;;
68273;SDS011;55104;47.356;19.448;2023-12-22T07:42:01;1.25;;;0.45;;
68273;SDS011;55104;47.356;19.448;2023-12-22T07:45:03;0.75;;;0.22;;
68273;SDS011;55104;47.356;19.448;2023-12-22T07:48:07;2.97;;;0.80;;
68273;SDS011;55104;47.356;19.448;2023-12-22T07:51:09;1.85;;;0.60;;
68273;SDS011;55104;47.356;19.448;2023-12-22T07:54:11;2.00;;;0.60;;
68273;SDS011;55104;47.356;19.448;2023-12-22T07:57:14;9.93;;;0.97;;
68273;SDS011;55104;47.356;19.448;2023-12-22T08:00:19;0.57;;;0.28;;
68273;SDS011;55104;47.356;19.448;2023-12-22T08:03:22;3.03;;;0.98;;
68273;SDS011;55104;47.356;19.448;2023-12-22T08:06:24;2.20;;;0.50;;
68273;SDS011;55104;47.356;19.448;2023-12-22T08:09:26;4.35;;;1.00;;
68273;SDS011;55104;47.356;19.448;2023-12-22T08:12:28;3.60;;;1.05;;
68273;SDS011;55104;47.356;19.448;2023-12-22T08:15:30;1.38;;;0.60;;
68273;SDS011;55104;47.356;19.448;2023-12-22T08:18:38;2.85;;;0.73;;
68273;SDS011;55104;47.356;19.448;2023-12-22T08:21:42;2.33;;;0.82;;
68273;SDS011;55104;47.356;19.448;2023-12-22T08:24:48;2.67;;;0.88;;
68273;SDS011;55104;47.356;19.448;2023-12-22T08:27:50;0.77;;;0.17;;
68273;SDS011;55104;47.356;19.448;2023-12-22T08:30:53;1.13;;;0.38;;
68273;SDS011;55104;47.356;19.448;2023-12-22T08:33:55;7.40;;;0.63;;
68273;SDS011;55104;47.356;19.448;2023-12-22T08:36:58;1.50;;;0.20;;
68273;SDS011;55104;47.356;19.448;2023-12-22T08:40:01;5.97;;;0.50;;
68273;SDS011;55104;47.356;19.448;2023-12-22T08:43:04;2.20;;;0.43;;
68273;SDS011;55104;47.356;19.448;2023-12-22T08:46:08;1.05;;;0.35;;
68273;SDS011;55104;47.356;19.448;2023-12-22T08:49:11;4.40;;;0.95;;
68273;SDS011;55104;47.356;19.448;2023-12-22T08:52:13;2.65;;;0.20;;
68273;SDS011;55104;47.356;19.448;2023-12-22T08:55:15;1.67;;;0.50;;
68273;SDS011;55104;47.356;19.448;2023-12-22T08:58:17;1.10;;;0.30;;
68273;SDS011;55104;47.356;19.448;2023-12-22T09:01:20;0.60;;;0.22;;
68273;SDS011;55104;47.356;19.448;2023-12-22T09:04:24;1.52;;;0.77;;
68273;SDS011;55104;47.356;19.448;2023-12-22T09:07:26;3.93;;;0.80;;
68273;SDS011;55104;47.356;19.448;2023-12-22T09:10:29;2.80;;;0.77;;
68273;SDS011;55104;47.356;19.448;2023-12-22T09:13:31;2.25;;;0.55;;
68273;SDS011;55104;47.356;19.448;2023-12-22T09:16:33;0.45;;;0.20;;
68273;SDS011;55104;47.356;19.448;2023-12-22T09:19:36;2.78;;;0.73;;
68273;SDS011;55104;47.356;19.448;2023-12-22T09:22:41;0.50;;;0.20;;
68273;SDS011;55104;47.356;19.448;2023-12-22T09:25:43;7.38;;;0.77;;
68273;SDS011;55104;47.356;19.448;2023-12-22T09:28:46;1.10;;;0.53;;
68273;SDS011;55104;47.356;19.448;2023-12-22T09:31:48;0.68;;;0.10;;
68273;SDS011;55104;47.356;19.448;2023-12-22T09:34:51;1.95;;;0.35;;
68273;SDS011;55104;47.356;19.448;2023-12-22T09:37:53;1.40;;;0.40;;
68273;SDS011;55104;47.356;19.448;2023-12-22T09:40:56;2.13;;;0.60;;
68273;SDS011;55104;47.356;19.448;2023-12-22T09:43:59;1.65;;;0.20;;
68273;SDS011;55104;47.356;19.448;2023-12-22T09:47:04;0.60;;;0.20;;
68273;SDS011;55104;47.356;19.448;2023-12-22T09:50:07;0.52;;;0.25;;
68273;SDS011;55104;47.356;19.448;2023-12-22T09:53:13;1.83;;;0.60;;
68273;SDS011;55104;47.356;19.448;2023-12-22T09:56:15;0.43;;;0.20;;
68273;SDS011;55104;47.356;19.448;2023-12-22T09:59:20;12.30;;;0.30;;
68273;SDS011;55104;47.356;19.448;2023-12-22T10:02:26;0.88;;;0.47;;
68273;SDS011;55104;47.356;19.448;2023-12-22T10:05:31;2.92;;;1.00;;
68273;SDS011;55104;47.356;19.448;2023-12-22T10:08:33;1.23;;;0.27;;
68273;SDS011;55104;47.356;19.448;2023-12-22T10:11:37;9.88;;;1.23;;
68273;SDS011;55104;47.356;19.448;2023-12-22T10:14:41;0.50;;;0.10;;
68273;SDS011;55104;47.356;19.448;2023-12-22T10:17:45;2.15;;;0.73;;
68273;SDS011;55104;47.356;19.448;2023-12-22T10:20:49;0.88;;;0.13;;
68273;SDS011;55104;47.356;19.448;2023-12-22T10:23:52;1.02;;;0.30;;
68273;SDS011;55104;47.356;19.448;2023-12-22T10:26:55;0.52;;;0.28;;
68273;SDS011;55104;47.356;19.448;2023-12-22T10:29:59;0.50;;;0.10;;
68273;SDS011;55104;47.356;19.448;2023-12-22T10:33:05;0.90;;;0.20;;
68273;SDS011;55104;47.356;19.448;2023-12-22T10:36:10;0.30;;;0.20;;
68273;SDS011;55104;47.356;19.448;2023-12-22T10:39:12;0.40;;;0.10;;
68273;SDS011;55104;47.356;19.448;2023-12-22T10:42:17;3.13;;;0.40;;
68273;SDS011;55104;47.356;19.448;2023-12-22T10:45:20;0.10;;;0.10;;
68273;SDS011;55104;47.356;19.448;2023-12-22T10:48:23;0.98;;;0.22;;
68273;SDS011;55104;47.356;19.448;2023-12-22T10:51:25;1.17;;;0.85;;
68273;SDS011;55104;47.356;19.448;2023-12-22T10:54:28;1.33;;;0.43;;
68273;SDS011;55104;47.356;19.448;2023-12-22T10:57:32;6.15;;;1.27;;
68273;SDS011;55104;47.356;19.448;2023-12-22T11:00:39;1.90;;;0.30;;
68273;SDS011;55104;47.356;19.448;2023-12-22T11:03:48;1.35;;;0.47;;
68273;SDS011;55104;47.356;19.448;2023-12-22T11:06:52;0.60;;;0.32;;
68273;SDS011;55104;47.356;19.448;2023-12-22T11:10:02;0.10;;;0.10;;
68273;SDS011;55104;47.356;19.448;2023-12-22T11:13:05;1.02;;;0.35;;
68273;SDS011;55104;47.356;19.448;2023-12-22T11:16:08;1.20;;;0.17;;
68273;SDS011;55104;47.356;19.448;2023-12-22T11:19:11;2.67;;;0.85;;
68273;SDS011;55104;47.356;19.448;2023-12-22T11:22:16;1.65;;;0.30;;
68273;SDS011;55104;47.356;19.448;2023-12-22T11:25:20;0.45;;;0.20;;
68273;SDS011;55104;47.356;19.448;2023-12-22T11:28:24;1.00;;;0.40;;
68273;SDS011;55104;47.356;19.448;2023-12-22T11:31:27;0.97;;;0.20;;
68273;SDS011;55104;47.356;19.448;2023-12-22T11:34:33;0.10;;;0.10;;
68273;SDS011;55104;47.356;19.448;2023-12-22T11:37:39;0.50;;;0.50;;
68273;SDS011;55104;47.356;19.448;2023-12-22T11:40:44;2.50;;;0.30;;
68273;SDS011;55104;47.356;19.448;2023-12-22T11:43:46;12.10;;;0.77;;
68273;SDS011;55104;47.356;19.448;2023-12-22T11:47:02;1.55;;;0.30;;
68273;SDS011;55104;47.356;19.448;2023-12-22T11:50:08;0.85;;;0.30;;
68273;SDS011;55104;47.356;19.448;2023-12-22T11:56:20;1.10;;;0.30;;
68273;SDS011;55104;47.356;19.448;2023-12-22T11:59:23;1.38;;;0.52;;
68273;SDS011;55104;47.356;19.448;2023-12-22T12:02:26;0.83;;;0.40;;
68273;SDS011;55104;47.356;19.448;2023-12-22T12:05:29;2.03;;;0.80;;
68273;SDS011;55104;47.356;19.448;2023-12-22T12:08:32;1.10;;;0.32;;
68273;SDS011;55104;47.356;19.448;2023-12-22T12:15:13;1.45;;;0.30;;
68273;SDS011;55104;47.356;19.448;2023-12-22T12:18:23;0.73;;;0.22;;
68273;SDS011;55104;47.356;19.448;2023-12-22T12:21:26;0.30;;;0.20;;
68273;SDS011;55104;47.356;19.448;2023-12-22T12:24:29;2.28;;;0.30;;
68273;SDS011;55104;47.356;19.448;2023-12-22T12:27:31;1.83;;;0.57;;
68273;SDS011;55104;47.356;19.448;2023-12-22T12:30:37;0.82;;;0.32;;
68273;SDS011;55104;47.356;19.448;2023-12-22T12:33:40;1.23;;;0.37;;
68273;SDS011;55104;47.356;19.448;2023-12-22T12:36:43;1.50;;;0.30;;
68273;SDS011;55104;47.356;19.448;2023-12-22T12:39:48;0.22;;;0.10;;
68273;SDS011;55104;47.356;19.448;2023-12-22T12:42:55;3.83;;;0.60;;
68273;SDS011;55104;47.356;19.448;2023-12-22T12:46:05;1.65;;;0.35;;
68273;SDS011;55104;47.356;19.448;2023-12-22T12:49:09;0.35;;;0.10;;
68273;SDS011;55104;47.356;19.448;2023-12-22T12:52:17;0.57;;;0.28;;
68273;SDS011;55104;47.356;19.448;2023-12-22T12:55:21;0.85;;;0.30;;
68273;SDS011;55104;47.356;19.448;2023-12-22T12:58:29;0.50;;;0.10;;
68273;SDS011;55104;47.356;19.448;2023-12-22T13:01:36;0.32;;;0.10;;
68273;SDS011;55104;47.356;19.448;2023-12-22T13:04:41;1.30;;;0.30;;
68273;SDS011;55104;47.356;19.448;2023-12-22T13:07:44;1.50;;;0.30;;
68273;SDS011;55104;47.356;19.448;2023-12-22T13:10:47;0.80;;;0.25;;
68273;SDS011;55104;47.356;19.448;2023-12-22T13:13:50;1.13;;;0.20;;
68273;SDS011;55104;47.356;19.448;2023-12-22T13:16:54;1.10;;;0.20;;
68273;SDS011;55104;47.356;19.448;2023-12-22T13:19:59;0.68;;;0.17;;
68273;SDS011;55104;47.356;19.448;2023-12-22T13:23:02;1.35;;;0.47;;
68273;SDS011;55104;47.356;19.448;2023-12-22T13:26:05;0.77;;;0.30;;
68273;SDS011;55104;47.356;19.448;2023-12-22T13:29:09;1.50;;;0.45;;
68273;SDS011;55104;47.356;19.448;2023-12-22T13:32:19;5.05;;;0.82;;
68273;SDS011;55104;47.356;19.448;2023-12-22T13:35:22;1.27;;;0.60;;
68273;SDS011;55104;47.356;19.448;2023-12-22T13:38:26;3.05;;;0.63;;
68273;SDS011;55104;47.356;19.448;2023-12-22T13:41:34;1.45;;;0.65;;
68273;SDS011;55104;47.356;19.448;2023-12-22T13:44:44;1.90;;;0.70;;
68273;SDS011;55104;47.356;19.448;2023-12-22T13:47:48;3.00;;;1.08;;
68273;SDS011;55104;47.356;19.448;2023-12-22T13:50:58;5.97;;;1.20;;
68273;SDS011;55104;47.356;19.448;2023-12-22T13:54:01;1.50;;;0.50;;
68273;SDS011;55104;47.356;19.448;2023-12-22T13:57:04;1.20;;;0.43;;
68273;SDS011;55104;47.356;19.448;2023-12-22T14:03:21;4.03;;;1.00;;
68273;SDS011;55104;47.356;19.448;2023-12-22T14:06:24;1.77;;;0.60;;
68273;SDS011;55104;47.356;19.448;2023-12-22T14:09:29;8.05;;;2.35;;
68273;SDS011;55104;47.356;19.448;2023-12-22T14:12:35;4.85;;;1.10;;
68273;SDS011;55104;47.356;19.448;2023-12-22T14:15:41;2.30;;;0.67;;
68273;SDS011;55104;47.356;19.448;2023-12-22T14:18:47;2.35;;;0.88;;
68273;SDS011;55104;47.356;19.448;2023-12-22T14:21:50;3.42;;;1.15;;
68273;SDS011;55104;47.356;19.448;2023-12-22T14:24:53;13.52;;;4.20;;
68273;SDS011;55104;47.356;19.448;2023-12-22T14:27:55;20.95;;;6.25;;
68273;SDS011;55104;47.356;19.448;2023-12-22T14:31:00;15.25;;;5.30;;
68273;SDS011;55104;47.356;19.448;2023-12-22T14:34:02;11.77;;;5.22;;
68273;SDS011;55104;47.356;19.448;2023-12-22T14:37:05;8.47;;;3.30;;
68273;SDS011;55104;47.356;19.448;2023-12-22T14:40:07;4.65;;;1.30;;
68273;SDS011;55104;47.356;19.448;2023-12-22T14:43:10;2.17;;;0.43;;
68273;SDS011;55104;47.356;19.448;2023-12-22T14:46:12;1.20;;;0.30;;
68273;SDS011;55104;47.356;19.448;2023-12-22T14:49:15;1.25;;;0.30;;
68273;SDS011;55104;47.356;19.448;2023-12-22T14:52:17;4.10;;;0.57;;
68273;SDS011;55104;47.356;19.448;2023-12-22T14:55:19;2.05;;;0.63;;
68273;SDS011;55104;47.356;19.448;2023-12-22T14:58:22;0.65;;;0.30;;
68273;SDS011;55104;47.356;19.448;2023-12-22T15:01:24;0.80;;;0.30;;
68273;SDS011;55104;47.356;19.448;2023-12-22T15:04:27;0.30;;;0.10;;
68273;SDS011;55104;47.356;19.448;2023-12-22T15:07:29;1.77;;;0.77;;
68273;SDS011;55104;47.356;19.448;2023-12-22T15:10:31;1.85;;;0.52;;
68273;SDS011;55104;47.356;19.448;2023-12-22T15:13:37;1.85;;;0.70;;
68273;SDS011;55104;47.356;19.448;2023-12-22T15:16:40;1.80;;;0.70;;
68273;SDS011;55104;47.356;19.448;2023-12-22T15:19:43;3.03;;;1.38;;
68273;SDS011;55104;47.356;19.448;2023-12-22T15:22:45;2.88;;;0.80;;
68273;SDS011;55104;47.356;19.448;2023-12-22T15:25:48;4.20;;;1.42;;
68273;SDS011;55104;47.356;19.448;2023-12-22T15:28:50;7.50;;;3.10;;
68273;SDS011;55104;47.356;19.448;2023-12-22T15:31:52;6.32;;;1.13;;
68273;SDS011;55104;47.356;19.448;2023-12-22T15:35:01;1.38;;;0.57;;
68273;SDS011;55104;47.356;19.448;2023-12-22T15:38:04;1.77;;;0.40;;
68273;SDS011;55104;47.356;19.448;2023-12-22T15:41:06;0.22;;;0.17;;
68273;SDS011;55104;47.356;19.448;2023-12-22T15:44:09;2.17;;;0.95;;
68273;SDS011;55104;47.356;19.448;2023-12-22T15:47:11;1.63;;;0.30;;
68273;SDS011;55104;47.356;19.448;2023-12-22T15:50:13;2.60;;;0.40;;
68273;SDS011;55104;47.356;19.448;2023-12-22T15:53:16;2.03;;;0.90;;
68273;SDS011;55104;47.356;19.448;2023-12-22T15:56:18;3.85;;;1.08;;
68273;SDS011;55104;47.356;19.448;2023-12-22T15:59:20;2.30;;;0.75;;
68273;SDS011;55104;47.356;19.448;2023-12-22T16:02:27;3.28;;;1.55;;
68273;SDS011;55104;47.356;19.448;2023-12-22T16:05:29;2.70;;;0.30;;
68273;SDS011;55104;47.356;19.448;2023-12-22T16:08:31;3.23;;;0.50;;
68273;SDS011;55104;47.356;19.448;2023-12-22T16:11:38;1.13;;;0.45;;
68273;SDS011;55104;47.356;19.448;2023-12-22T16:14:40;1.27;;;0.50;;
68273;SDS011;55104;47.356;19.448;2023-12-22T16:17:42;1.87;;;0.60;;
68273;SDS011;55104;47.356;19.448;2023-12-22T16:20:45;1.42;;;0.40;;
68273;SDS011;55104;47.356;19.448;2023-12-22T16:23:48;1.13;;;0.50;;
68273;SDS011;55104;47.356;19.448;2023-12-22T16:26:56;0.88;;;0.30;;
68273;SDS011;55104;47.356;19.448;2023-12-22T16:29:58;8.15;;;1.20;;
68273;SDS011;55104;47.356;19.448;2023-12-22T16:33:00;1.77;;;0.47;;
68273;SDS011;55104;47.356;19.448;2023-12-22T16:36:07;2.25;;;0.85;;
68273;SDS011;55104;47.356;19.448;2023-12-22T16:39:12;3.63;;;1.20;;
68273;SDS011;55104;47.356;19.448;2023-12-22T16:42:15;1.40;;;0.80;;
68273;SDS011;55104;47.356;19.448;2023-12-22T16:45:18;2.72;;;1.05;;
68273;SDS011;55104;47.356;19.448;2023-12-22T16:48:20;4.30;;;1.37;;
68273;SDS011;55104;47.356;19.448;2023-12-22T16:51:23;4.03;;;1.35;;
68273;SDS011;55104;47.356;19.448;2023-12-22T16:54:25;4.93;;;1.77;;
68273;SDS011;55104;47.356;19.448;2023-12-22T16:57:27;8.10;;;1.33;;
68273;SDS011;55104;47.356;19.448;2023-12-22T17:00:30;4.28;;;1.65;;
68273;SDS011;55104;47.356;19.448;2023-12-22T17:03:32;2.75;;;0.98;;
68273;SDS011;55104;47.356;19.448;2023-12-22T17:06:45;12.65;;;3.78;;
68273;SDS011;55104;47.356;19.448;2023-12-22T17:09:48;5.57;;;1.90;;
68273;SDS011;55104;47.356;19.448;2023-12-22T17:12:51;5.30;;;1.65;;
68273;SDS011;55104;47.356;19.448;2023-12-22T17:15:54;6.28;;;1.98;;
68273;SDS011;55104;47.356;19.448;2023-12-22T17:18:56;5.00;;;2.43;;
68273;SDS011;55104;47.356;19.448;2023-12-22T17:21:58;11.80;;;2.70;;
68273;SDS011;55104;47.356;19.448;2023-12-22T17:25:01;9.15;;;3.05;;
68273;SDS011;55104;47.356;19.448;2023-12-22T17:28:04;14.43;;;3.88;;
68273;SDS011;55104;47.356;19.448;2023-12-22T17:31:06;4.97;;;0.98;;
68273;SDS011;55104;47.356;19.448;2023-12-22T17:34:09;3.03;;;0.98;;
68273;SDS011;55104;47.356;19.448;2023-12-22T17:37:11;4.55;;;1.85;;
68273;SDS011;55104;47.356;19.448;2023-12-22T17:40:14;1.83;;;0.70;;
68273;SDS011;55104;47.356;19.448;2023-12-22T17:43:16;4.40;;;0.82;;
68273;SDS011;55104;47.356;19.448;2023-12-22T17:46:19;4.13;;;1.38;;
68273;SDS011;55104;47.356;19.448;2023-12-22T17:49:21;3.60;;;0.97;;
68273;SDS011;55104;47.356;19.448;2023-12-22T17:52:24;5.05;;;1.35;;
68273;SDS011;55104;47.356;19.448;2023-12-22T17:55:26;6.32;;;1.33;;
68273;SDS011;55104;47.356;19.448;2023-12-22T17:58:29;5.00;;;1.75;;
68273;SDS011;55104;47.356;19.448;2023-12-22T18:01:33;4.38;;;2.17;;
68273;SDS011;55104;47.356;19.448;2023-12-22T18:04:35;4.40;;;1.52;;
68273;SDS011;55104;47.356;19.448;2023-12-22T18:07:38;3.05;;;1.48;;
68273;SDS011;55104;47.356;19.448;2023-12-22T18:10:40;1.93;;;0.60;;
68273;SDS011;55104;47.356;19.448;2023-12-22T18:13:42;1.15;;;0.47;;
68273;SDS011;55104;47.356;19.448;2023-12-22T18:16:45;1.75;;;0.52;;
68273;SDS011;55104;47.356;19.448;2023-12-22T18:19:47;0.37;;;0.10;;